createdAt,value
2023-02-25T00:01:33.559Z,24.60
2023-02-25T00:04:41.146Z,20.87
2023-02-25T00:07:47.362Z,19.60
2023-02-25T00:10:59.133Z,23.73
2023-02-25T00:14:05.298Z,17.17
2023-02-25T00:17:13.299Z,17.33
2023-02-25T00:20:22.566Z,17.43
2023-02-25T00:23:29.092Z,20.23
2023-02-25T00:26:35.402Z,25.33
2023-02-25T00:29:42.006Z,19.80
2023-02-25T00:32:50.818Z,34.23
2023-02-25T00:35:57.025Z,36.67
2023-02-25T00:39:03.585Z,27.43
2023-02-25T00:42:10.273Z,22.47
2023-02-25T00:45:16.297Z,17.87
2023-02-25T00:48:23.789Z,12.47
2023-02-25T00:51:32.939Z,19.97
2023-02-25T00:54:39.727Z,18.47
2023-02-25T00:57:45.705Z,12.00
2023-02-25T01:00:52.250Z,17.30
2023-02-25T01:04:00.680Z,19.03
2023-02-25T01:07:07.953Z,29.77
2023-02-25T01:10:14.341Z,28.10
2023-02-25T01:13:20.990Z,19.57
2023-02-25T01:16:30.252Z,26.00
2023-02-25T01:19:37.952Z,18.43
2023-02-25T01:22:44.255Z,19.40
2023-02-25T01:25:50.932Z,15.63
2023-02-25T01:28:57.626Z,19.77
2023-02-25T01:32:05.551Z,18.23
2023-02-25T01:35:13.551Z,22.03
2023-02-25T01:38:20.163Z,16.73
2023-02-25T01:41:26.871Z,18.10
2023-02-25T01:44:35.301Z,17.07
2023-02-25T01:47:42.090Z,12.20
2023-02-25T01:50:53.413Z,14.07
2023-02-25T01:54:02.940Z,50.17
2023-02-25T01:57:11.776Z,27.37
2023-02-25T02:00:19.125Z,20.83
2023-02-25T02:03:27.980Z,14.30
2023-02-25T02:06:38.204Z,18.70
2023-02-25T02:09:56.064Z,13.47
2023-02-25T02:13:02.456Z,19.83
2023-02-25T02:16:24.003Z,21.83
2023-02-25T02:19:40.607Z,23.00
2023-02-25T02:23:22.223Z,23.13
2023-02-25T02:26:52.082Z,16.20
2023-02-25T02:30:31.879Z,13.87
2023-02-25T02:33:50.788Z,6.67
2023-02-25T02:37:09.080Z,14.40
2023-02-25T02:40:24.227Z,12.90
2023-02-25T02:43:40.626Z,13.97
2023-02-25T02:46:50.188Z,10.50
2023-02-25T02:50:04.030Z,12.83
2023-02-25T02:53:14.597Z,12.20
2023-02-25T02:56:24.678Z,14.93
2023-02-25T02:59:36.901Z,10.67
2023-02-25T03:02:46.399Z,10.10
2023-02-25T03:05:55.059Z,8.70
2023-02-25T03:09:06.030Z,17.03
2023-02-25T03:12:12.485Z,13.77
2023-02-25T03:15:18.776Z,18.67
2023-02-25T03:18:31.985Z,12.30
2023-02-25T03:21:43.076Z,20.83
2023-02-25T03:24:54.943Z,23.17
2023-02-25T03:28:05.563Z,54.33
2023-02-25T03:31:15.935Z,47.20
2023-02-25T03:34:27.048Z,49.83
2023-02-25T03:37:38.766Z,58.97
2023-02-25T03:40:45.303Z,44.40
2023-02-25T03:43:55.512Z,34.80
2023-02-25T03:47:04.517Z,35.90
2023-02-25T03:50:13.884Z,45.87
2023-02-25T03:53:21.987Z,28.80
2023-02-25T03:56:28.523Z,33.20
2023-02-25T03:59:34.622Z,42.90
2023-02-25T04:02:40.902Z,67.77
2023-02-25T04:05:46.837Z,55.10
2023-02-25T04:08:54.472Z,45.37
2023-02-25T04:12:00.705Z,28.47
2023-02-25T04:15:08.138Z,45.50
2023-02-25T04:18:14.577Z,27.50
2023-02-25T04:21:29.961Z,27.40
2023-02-25T04:24:38.041Z,35.83
2023-02-25T04:27:44.463Z,29.23
2023-02-25T04:30:50.844Z,36.23
2023-02-25T04:33:58.324Z,31.50
2023-02-25T04:37:05.169Z,38.23
2023-02-25T04:40:17.049Z,32.47
2023-02-25T04:43:23.264Z,34.00
2023-02-25T04:46:29.436Z,24.57
2023-02-25T04:49:45.249Z,16.47
2023-02-25T04:52:51.736Z,20.47
2023-02-25T04:55:59.037Z,25.27
2023-02-25T04:59:05.601Z,29.27
2023-02-25T05:02:11.968Z,42.40
2023-02-25T05:05:18.962Z,44.83
2023-02-25T05:08:25.954Z,35.87
2023-02-25T05:11:33.496Z,17.33
2023-02-25T05:14:39.783Z,71.30
2023-02-25T05:17:45.792Z,84.87
2023-02-25T05:20:52.377Z,24.10
2023-02-25T05:23:58.526Z,35.63
2023-02-25T05:27:09.482Z,38.20
2023-02-25T05:30:16.714Z,32.50
2023-02-25T05:33:23.575Z,33.30
2023-02-25T05:36:30.544Z,33.03
2023-02-25T05:39:36.864Z,42.07
2023-02-25T05:42:44.149Z,56.97
2023-02-25T05:45:54.654Z,109.70
2023-02-25T05:49:00.774Z,184.40
2023-02-25T05:52:07.006Z,121.47
2023-02-25T05:55:12.959Z,58.30
2023-02-25T05:58:20.408Z,42.80
2023-02-25T06:01:29.571Z,60.70
2023-02-25T06:04:35.636Z,61.87
2023-02-25T06:07:41.593Z,64.73
2023-02-25T06:10:47.841Z,76.20
2023-02-25T06:13:56.329Z,82.20
2023-02-25T06:17:03.417Z,147.50
2023-02-25T06:20:10.683Z,126.07
2023-02-25T06:23:17.184Z,98.73
2023-02-25T06:26:24.361Z,92.57
2023-02-25T06:29:31.957Z,109.13
2023-02-25T06:32:38.653Z,100.80
2023-02-25T06:35:45.119Z,110.87
2023-02-25T06:38:51.510Z,308.27
2023-02-25T06:41:57.487Z,101.13
2023-02-25T06:45:05.532Z,81.90
2023-02-25T06:48:12.175Z,93.60
2023-02-25T06:51:18.189Z,133.43
2023-02-25T06:54:24.685Z,95.83
2023-02-25T06:57:31.175Z,89.53
2023-02-25T07:00:43.217Z,112.83
2023-02-25T07:03:49.696Z,106.00
2023-02-25T07:06:56.672Z,70.63
2023-02-25T07:10:03.208Z,81.20
2023-02-25T07:13:10.656Z,54.70
2023-02-25T07:16:18.629Z,57.93
2023-02-25T07:19:25.108Z,61.23
2023-02-25T07:22:31.863Z,70.70
2023-02-25T07:25:39.974Z,80.47
2023-02-25T07:28:48.362Z,61.53
2023-02-25T07:31:56.659Z,76.10
2023-02-25T07:35:02.678Z,61.47
2023-02-25T07:38:12.940Z,56.07
2023-02-25T07:41:20.974Z,46.50
2023-02-25T07:44:27.216Z,39.53
2023-02-25T07:47:35.024Z,50.07
2023-02-25T07:50:41.339Z,39.43
2023-02-25T07:53:48.764Z,57.23
2023-02-25T07:56:55.108Z,42.57
2023-02-25T08:00:01.321Z,41.07
2023-02-25T08:03:09.114Z,53.07
2023-02-25T08:06:15.816Z,63.10
2023-02-25T08:09:21.903Z,57.13
2023-02-25T08:12:27.997Z,43.13
2023-02-25T08:15:34.447Z,30.47
2023-02-25T08:18:42.909Z,24.90
2023-02-25T08:21:48.885Z,30.33
2023-02-25T08:24:54.944Z,35.17
2023-02-25T08:28:02.514Z,27.17
2023-02-25T08:31:12.043Z,20.63
2023-02-25T08:34:19.836Z,25.87
2023-02-25T08:37:26.979Z,23.73
2023-02-25T08:40:33.555Z,34.97
2023-02-25T08:43:40.997Z,52.33
2023-02-25T08:46:47.977Z,78.13
2023-02-25T08:49:55.367Z,50.27
2023-02-25T08:53:02.122Z,35.73
2023-02-25T08:56:09.000Z,38.30
2023-02-25T08:59:16.822Z,46.30
2023-02-25T09:02:24.343Z,30.40
2023-02-25T09:05:31.635Z,29.80
2023-02-25T09:08:37.869Z,25.33
2023-02-25T09:11:44.908Z,22.03
2023-02-25T09:14:51.479Z,18.00
2023-02-25T09:17:57.758Z,16.43
2023-02-25T09:21:05.709Z,22.33
2023-02-25T09:24:12.203Z,14.13
2023-02-25T09:27:18.600Z,14.60
2023-02-25T09:30:24.780Z,20.63
2023-02-25T09:33:32.929Z,20.33
2023-02-25T09:36:40.681Z,13.50
2023-02-25T09:39:47.170Z,17.20
2023-02-25T09:43:06.146Z,19.23
2023-02-25T09:46:18.903Z,18.93
2023-02-25T09:49:29.666Z,16.73
2023-02-25T09:52:41.183Z,21.90
2023-02-25T09:55:50.896Z,14.13
2023-02-25T09:58:59.904Z,17.43
2023-02-25T10:02:21.804Z,16.27
2023-02-25T10:05:33.833Z,25.17
2023-02-25T10:08:48.967Z,16.70
2023-02-25T10:12:05.220Z,14.13
2023-02-25T10:15:39.983Z,14.03
2023-02-25T10:19:00.193Z,20.17
2023-02-25T10:22:20.915Z,14.50
2023-02-25T10:25:30.359Z,19.70
2023-02-25T10:28:37.502Z,18.33
2023-02-25T10:31:45.883Z,20.03
2023-02-25T10:34:54.005Z,19.93
2023-02-25T10:37:59.918Z,18.80
2023-02-25T10:41:07.762Z,93.13
2023-02-25T10:44:14.527Z,21.43
2023-02-25T10:47:30.433Z,30.33
2023-02-25T10:50:45.444Z,15.70
2023-02-25T10:54:08.532Z,17.67
2023-02-25T10:57:17.974Z,18.40
2023-02-25T11:00:29.985Z,12.87
2023-02-25T11:03:45.498Z,13.57
2023-02-25T11:06:52.012Z,21.13
2023-02-25T11:10:16.343Z,12.93
2023-02-25T11:13:31.166Z,18.30
2023-02-25T11:16:40.048Z,18.60
2023-02-25T11:19:49.957Z,23.80
2023-02-25T11:22:57.987Z,22.87
2023-02-25T11:26:06.766Z,21.80
2023-02-25T11:29:19.087Z,43.07
2023-02-25T11:32:25.645Z,25.33
2023-02-25T11:35:37.453Z,16.77
2023-02-25T11:38:44.292Z,21.40
2023-02-25T11:41:51.952Z,22.43
2023-02-25T11:45:03.430Z,12.50
2023-02-25T11:48:19.726Z,13.87
2023-02-25T11:51:31.686Z,16.37
2023-02-25T11:54:48.047Z,26.13
2023-02-25T11:58:06.349Z,15.57
2023-02-25T12:01:22.346Z,13.70
2023-02-25T12:04:58.509Z,11.73
2023-02-25T12:08:52.223Z,13.00
2023-02-25T12:12:17.721Z,16.70
2023-02-25T12:15:33.582Z,17.87
2023-02-25T12:19:18.246Z,15.07
2023-02-25T12:23:00.031Z,12.60
2023-02-25T12:26:11.345Z,9.93
2023-02-25T12:29:42.413Z,14.10
2023-02-25T12:32:57.332Z,18.33
2023-02-25T12:36:23.405Z,13.40
2023-02-25T12:39:57.353Z,8.83
2023-02-25T12:43:17.200Z,9.63
2023-02-25T12:46:33.827Z,14.13
2023-02-25T12:50:05.865Z,14.70
2023-02-25T12:53:31.377Z,9.37
2023-02-25T12:57:05.305Z,12.13
2023-02-25T13:00:47.901Z,9.43
2023-02-25T13:04:18.181Z,10.60
2023-02-25T13:08:08.638Z,14.80
2023-02-25T13:11:26.389Z,21.60
2023-02-25T13:14:48.097Z,16.70
2023-02-25T13:18:10.436Z,15.00
2023-02-25T13:21:34.124Z,13.00
2023-02-25T13:24:49.404Z,16.20
2023-02-25T13:28:20.526Z,15.17
2023-02-25T13:31:37.268Z,11.80
2023-02-25T13:34:51.358Z,12.80
2023-02-25T13:38:10.028Z,16.93
2023-02-25T13:41:32.948Z,12.93
2023-02-25T13:45:13.300Z,11.97
2023-02-25T13:48:40.246Z,21.87
2023-02-25T13:52:22.650Z,25.83
2023-02-25T13:55:44.482Z,14.83
2023-02-25T13:59:03.652Z,12.63
2023-02-25T14:02:36.107Z,15.43
2023-02-25T14:06:06.143Z,14.80
2023-02-25T14:09:26.406Z,13.83
2023-02-25T14:12:45.682Z,15.20
2023-02-25T14:16:02.356Z,18.50
2023-02-25T14:19:32.608Z,13.40
2023-02-25T14:22:44.321Z,12.10
2023-02-25T14:26:07.765Z,14.33
2023-02-25T14:29:24.970Z,13.53
2023-02-25T14:32:45.598Z,12.90
2023-02-25T14:36:20.217Z,26.87
2023-02-25T14:39:45.644Z,13.47
2023-02-25T14:43:06.266Z,18.43
2023-02-25T14:46:26.919Z,18.20
2023-02-25T14:49:38.963Z,16.17
2023-02-25T14:53:12.782Z,15.50
2023-02-25T14:56:47.736Z,14.43
2023-02-25T15:00:12.936Z,50.60
2023-02-25T15:03:44.922Z,40.93
2023-02-25T15:07:01.642Z,26.17
2023-02-25T15:10:28.437Z,16.47
2023-02-25T15:14:03.097Z,24.80
2023-02-25T15:17:44.201Z,22.23
2023-02-25T15:20:50.803Z,16.83
2023-02-25T15:23:58.057Z,35.60
2023-02-25T15:27:49.349Z,29.23
2023-02-25T15:31:34.397Z,17.70
2023-02-25T15:34:55.802Z,17.17
2023-02-25T15:38:09.646Z,20.57
2023-02-25T15:41:44.900Z,24.97
2023-02-25T15:44:53.002Z,22.00
2023-02-25T15:48:29.532Z,13.20
2023-02-25T15:51:44.103Z,11.40
2023-02-25T15:54:54.032Z,17.53
2023-02-25T15:58:00.397Z,14.27
2023-02-25T16:01:28.250Z,12.27
2023-02-25T16:04:47.391Z,16.63
2023-02-25T16:08:07.135Z,14.93
2023-02-25T16:11:24.271Z,21.53
2023-02-25T16:14:33.528Z,17.80
2023-02-25T16:17:41.631Z,16.90
2023-02-25T16:20:50.981Z,13.13
2023-02-25T16:24:00.708Z,12.97
2023-02-25T16:27:13.938Z,15.87
2023-02-25T16:30:27.130Z,11.23
2023-02-25T16:33:44.961Z,15.70
2023-02-25T16:37:03.023Z,21.97
2023-02-25T16:40:16.405Z,13.60
2023-02-25T16:43:27.281Z,12.83
2023-02-25T16:46:35.711Z,22.13
2023-02-25T16:49:47.244Z,15.07
2023-02-25T16:52:55.151Z,13.00
2023-02-25T16:56:01.879Z,17.50
2023-02-25T16:59:18.276Z,20.60
2023-02-25T17:02:26.453Z,19.57
2023-02-25T17:05:35.845Z,19.97
2023-02-25T17:08:46.317Z,13.67
2023-02-25T17:11:56.397Z,23.43
2023-02-25T17:15:06.205Z,18.27
2023-02-25T17:18:20.146Z,14.50
2023-02-25T17:21:30.342Z,19.20
2023-02-25T17:24:37.274Z,8.53
2023-02-25T17:27:44.162Z,23.23
2023-02-25T17:30:51.357Z,23.33
2023-02-25T17:34:00.973Z,20.73
2023-02-25T17:37:10.393Z,18.37
2023-02-25T17:40:17.102Z,28.10
2023-02-25T17:43:25.341Z,17.60
2023-02-25T17:46:36.399Z,20.07
2023-02-25T17:49:42.574Z,12.77
2023-02-25T17:52:51.707Z,15.57
2023-02-25T17:55:58.204Z,26.17
2023-02-25T17:59:07.220Z,25.43
2023-02-25T18:02:36.259Z,22.73
2023-02-25T18:05:51.357Z,33.80
2023-02-25T18:09:02.670Z,20.63
2023-02-25T18:12:21.405Z,25.47
2023-02-25T18:15:31.063Z,17.00
2023-02-25T18:18:37.839Z,14.80
2023-02-25T18:21:44.552Z,22.00
2023-02-25T18:24:55.652Z,15.93
2023-02-25T18:28:02.676Z,30.17
2023-02-25T18:31:09.955Z,25.53
2023-02-25T18:34:16.116Z,21.13
2023-02-25T18:37:22.438Z,16.93
2023-02-25T18:40:31.740Z,16.13
2023-02-25T18:43:41.966Z,18.03
2023-02-25T18:46:49.811Z,13.20
2023-02-25T18:49:55.785Z,15.73
2023-02-25T18:53:02.400Z,34.03
2023-02-25T18:56:13.088Z,14.30
2023-02-25T18:59:19.385Z,35.17
2023-02-25T19:02:29.975Z,26.67
2023-02-25T19:05:36.894Z,21.53
2023-02-25T19:08:42.848Z,19.33
2023-02-25T19:11:51.967Z,20.73
2023-02-25T19:15:00.524Z,16.93
2023-02-25T19:18:06.982Z,19.93
2023-02-25T19:21:16.559Z,13.20
2023-02-25T19:24:22.769Z,10.07
2023-02-25T19:27:31.446Z,11.73
2023-02-25T19:30:40.988Z,11.37
2023-02-25T19:33:47.369Z,13.00
2023-02-25T19:36:53.520Z,17.17
2023-02-25T19:39:59.732Z,20.30
2023-02-25T19:43:07.810Z,16.13
2023-02-25T19:46:17.389Z,24.37
2023-02-25T19:49:23.662Z,50.13
2023-02-25T19:52:30.397Z,20.83
2023-02-25T19:55:37.136Z,16.33
2023-02-25T19:58:44.737Z,16.13
2023-02-25T20:01:50.912Z,16.07
2023-02-25T20:04:57.352Z,20.40
2023-02-25T20:08:03.847Z,25.23
2023-02-25T20:11:10.931Z,15.30
2023-02-25T20:14:18.841Z,15.37
2023-02-25T20:17:26.051Z,13.03
2023-02-25T20:20:32.287Z,20.13
2023-02-25T20:23:39.833Z,26.37
2023-02-25T20:26:46.524Z,22.63
2023-02-25T20:29:55.442Z,8.57
2023-02-25T20:33:02.843Z,13.07
2023-02-25T20:36:20.820Z,14.40
2023-02-25T20:39:44.163Z,25.07
2023-02-25T20:42:50.245Z,17.23
2023-02-25T20:45:58.199Z,28.00
2023-02-25T20:49:06.066Z,20.27
2023-02-25T20:52:13.713Z,9.30
2023-02-25T20:55:19.731Z,11.87
2023-02-25T20:58:25.878Z,14.47
2023-02-25T21:01:33.848Z,14.50
2023-02-25T21:04:40.027Z,15.33
2023-02-25T21:07:46.433Z,15.87
2023-02-25T21:10:52.702Z,15.10
2023-02-25T21:13:58.686Z,22.40
2023-02-25T21:17:09.686Z,14.80
2023-02-25T21:20:16.217Z,25.03
2023-02-25T21:23:24.657Z,20.73
2023-02-25T21:26:30.659Z,15.13
2023-02-25T21:29:37.019Z,9.57
2023-02-25T21:32:44.794Z,13.70
2023-02-25T21:35:53.444Z,12.77
2023-02-25T21:38:59.754Z,12.87
2023-02-25T21:42:06.069Z,10.23
2023-02-25T21:45:13.195Z,13.73
2023-02-25T21:48:20.908Z,11.77
2023-02-25T21:51:30.017Z,13.13
2023-02-25T21:54:36.486Z,9.73
2023-02-25T21:57:42.522Z,8.40
2023-02-25T22:00:48.675Z,13.97
2023-02-25T22:03:56.668Z,7.63
2023-02-25T22:07:02.912Z,15.80
2023-02-25T22:10:10.854Z,8.90
2023-02-25T22:13:17.734Z,9.07
2023-02-25T22:16:24.909Z,8.10
2023-02-25T22:19:32.945Z,12.60
2023-02-25T22:22:39.632Z,8.50
2023-02-25T22:25:45.691Z,12.00
2023-02-25T22:28:55.934Z,12.77
2023-02-25T22:32:02.497Z,8.63
2023-02-25T22:35:10.671Z,15.77
2023-02-25T22:38:16.896Z,8.17
2023-02-25T22:41:25.317Z,9.53
2023-02-25T22:44:31.605Z,9.33
2023-02-25T22:47:38.028Z,24.23
2023-02-25T22:50:49.813Z,10.40
2023-02-25T22:53:56.524Z,15.53
2023-02-25T22:57:02.897Z,14.07
2023-02-25T23:00:17.029Z,9.27
2023-02-25T23:03:23.934Z,10.10
2023-02-25T23:06:43.445Z,10.50
2023-02-25T23:09:50.624Z,14.97
2023-02-25T23:12:58.880Z,4.70
2023-02-25T23:16:06.295Z,13.67
2023-02-25T23:19:16.056Z,13.60
2023-02-25T23:22:26.869Z,8.63
2023-02-25T23:25:33.406Z,9.03
2023-02-25T23:28:39.574Z,16.83
2023-02-25T23:31:48.134Z,10.30
2023-02-25T23:34:54.459Z,4.70
2023-02-25T23:38:02.661Z,11.53
2023-02-25T23:41:09.476Z,5.20
2023-02-25T23:44:15.800Z,12.70
2023-02-25T23:47:22.449Z,8.37
2023-02-25T23:50:29.009Z,10.67
2023-02-25T23:53:37.134Z,8.00
2023-02-25T23:56:43.172Z,9.40
2023-02-25T23:59:49.458Z,8.80
